Illinois — WYQ3689 — position and weather

sailwx.info

Track history (hours):
 
Tides and Currents Weather Stations Pressure Air Temp Water Temp Dewpoint Dewpoint Depression Visibility Wind Speed Wind Dir Waves Ship Positions

Illinois

Owner: Great Lakes Dredge & Dock Company, OAK BROOK, IL. More information available from US FCC via Universal Licensing System and Coast Guard Vessel Documentation Center.

Last reported at 2015-Sep-04 10:05 UTC. Time now 2015-Sep-05 14:15 UTC.
Position N 36°50' W 076°16'.

Length 69 m.

Type: Other ship. MMSI: 366796250.

Date/timePositionNaut miles runAvg speedWind from/ knotsBaromVisibWave heightAir tempDewpointWater temp
2015-Sep-04 10:05N 36°50' W 076°16'0 0.0
2015-Sep-04 09:29N 36°50' W 076°16'22 0.6
2015-Sep-02 23:22N 36°58' W 075°51'28 2.7
2015-Sep-02 13:05N 37°23' W 075°34'13 4.5
2015-Sep-02 10:10N 37°35' W 075°27'3 4.8
2015-Sep-02 09:33N 37°37' W 075°25'5 4.9
2015-Sep-02 08:33N 37°42' W 075°23'5 4.9
2015-Sep-02 07:33N 37°46' W 075°20'5 4.8
2015-Sep-02 06:29N 37°51' W 075°17'5 4.8
2015-Sep-02 05:28N 37°55' W 075°15'5 4.8
2015-Sep-02 04:29N 37°59' W 075°12'18 4.6
2015-Sep-02 00:33N 38°16' W 075°03'9 4.4
2015-Sep-01 22:26N 38°25' W 074°58'4 4.7
2015-Sep-01 21:34N 38°29' W 074°58'5 5.0
2015-Sep-01 20:33N 38°34' W 074°58'5 5.3
2015-Sep-01 19:33N 38°39' W 074°58'5 5.1
2015-Sep-01 18:33N 38°44' W 074°56'5 4.6
2015-Sep-01 17:33N 38°48' W 074°54'4 4.4
2015-Sep-01 16:33N 38°52' W 074°52'4 4.0
2015-Sep-01 15:31N 38°56' W 074°52'1 0.8
2015-Sep-01 14:25N 38°57' W 074°52'0 0.0
2015-Sep-01 12:31N 38°57' W 074°52'0 0.0
2015-Sep-01 11:31N 38°57' W 074°52'0 0.0
2015-Sep-01 10:31N 38°57' W 074°52'0 0.0
2015-Sep-01 09:10N 38°57' W 074°52'0 0.0
2015-Sep-01 07:31N 38°57' W 074°52'0 0.0
2015-Sep-01 06:31N 38°57' W 074°52'0 0.0
2015-Sep-01 05:22N 38°57' W 074°52'0 0.0
2015-Sep-01 04:31N 38°57' W 074°52'0 0.0
2015-Sep-01 03:07N 38°57' W 074°52'0 0.0
2015-Sep-01 02:25N 38°57' W 074°52'0 0.0
2015-Sep-01 01:28N 38°57' W 074°52'0 0.0
2015-Sep-01 00:31N 38°57' W 074°52'0 0.0
2015-Aug-31 23:31N 38°57' W 074°52'0 0.0
2015-Aug-31 21:13N 38°57' W 074°52'0 0.3
2015-Aug-31 19:33N 38°57' W 074°52'17 1.5
2015-Aug-31 08:31N 39°10' W 074°38'0 0.0
2015-Aug-31 07:31N 39°10' W 074°38'0 0.0
2015-Aug-31 06:19N 39°10' W 074°38'0 0.0
2015-Aug-31 05:28N 39°10' W 074°38'0 0.0
2015-Aug-31 03:31N 39°10' W 074°38'0 0.0
2015-Aug-31 02:31N 39°10' W 074°38'0 0.0
2015-Aug-31 01:28N 39°10' W 074°38'0 0.0
2015-Aug-31 00:16N 39°10' W 074°38'0 0.0
2015-Aug-30 13:04N 39°10' W 074°38'0 0.0
2015-Aug-30 12:19N 39°10' W 074°38'0 0.0
2015-Aug-30 11:28N 39°09' W 074°38'0 0.0
2015-Aug-30 10:31N 39°10' W 074°38'0 0.0
2015-Aug-30 09:16N 39°09' W 074°38'0 0.0
2015-Aug-30 08:31N 39°10' W 074°38'0 0.0
2015-Aug-30 07:28N 39°09' W 074°38'0 0.0
2015-Aug-30 06:25N 39°09' W 074°38'0 0.0
2015-Aug-30 05:16N 39°09' W 074°38'0 0.0
2015-Aug-29 06:25N 39°09' W 074°38'0 0.0
2015-Aug-28 12:31N 39°10' W 074°38'0 0.0
2015-Aug-28 08:16N 39°10' W 074°38'0 0.0
2015-Aug-28 07:19N 39°10' W 074°38'0 0.0
2015-Aug-26 09:25N 39°10' W 074°38'0 0.0
2015-Aug-26 08:04N 39°10' W 074°38'0 0.0
2015-Aug-26 03:22N 39°10' W 074°38'  
Track history (hours):
 
Tides and Currents Weather Stations Pressure Air Temp Water Temp Dewpoint Dewpoint Depression Visibility Wind Speed Wind Dir Waves Ship Positions

Illinois

Owner: Great Lakes Dredge & Dock Company, OAK BROOK, IL. More information available from US FCC via Universal Licensing System and Coast Guard Vessel Documentation Center.

Last reported at 2015-Sep-04 10:05 UTC. Time now 2015-Sep-05 14:15 UTC.
Position N 36°50' W 076°16'.

Length 69 m.

Type: Other ship. MMSI: 366796250.

Date/timePositionNaut miles runAvg speedWind from/ knotsBaromVisibWave heightAir tempDewpointWater temp
2015-Sep-04 10:05N 36°50' W 076°16'0 0.0
2015-Sep-04 09:29N 36°50' W 076°16'22 0.6
2015-Sep-02 23:22N 36°58' W 075°51'28 2.7
2015-Sep-02 13:05N 37°23' W 075°34'13 4.5
2015-Sep-02 10:10N 37°35' W 075°27'3 4.8
2015-Sep-02 09:33N 37°37' W 075°25'5 4.9
2015-Sep-02 08:33N 37°42' W 075°23'5 4.9
2015-Sep-02 07:33N 37°46' W 075°20'5 4.8
2015-Sep-02 06:29N 37°51' W 075°17'5 4.8
2015-Sep-02 05:28N 37°55' W 075°15'5 4.8
2015-Sep-02 04:29N 37°59' W 075°12'18 4.6
2015-Sep-02 00:33N 38°16' W 075°03'9 4.4
2015-Sep-01 22:26N 38°25' W 074°58'4 4.7
2015-Sep-01 21:34N 38°29' W 074°58'5 5.0
2015-Sep-01 20:33N 38°34' W 074°58'5 5.3
2015-Sep-01 19:33N 38°39' W 074°58'5 5.1
2015-Sep-01 18:33N 38°44' W 074°56'5 4.6
2015-Sep-01 17:33N 38°48' W 074°54'4 4.4
2015-Sep-01 16:33N 38°52' W 074°52'4 4.0
2015-Sep-01 15:31N 38°56' W 074°52'1 0.8
2015-Sep-01 14:25N 38°57' W 074°52'0 0.0
2015-Sep-01 12:31N 38°57' W 074°52'0 0.0
2015-Sep-01 11:31N 38°57' W 074°52'0 0.0
2015-Sep-01 10:31N 38°57' W 074°52'0 0.0
2015-Sep-01 09:10N 38°57' W 074°52'0 0.0
2015-Sep-01 07:31N 38°57' W 074°52'0 0.0
2015-Sep-01 06:31N 38°57' W 074°52'0 0.0
2015-Sep-01 05:22N 38°57' W 074°52'0 0.0
2015-Sep-01 04:31N 38°57' W 074°52'0 0.0
2015-Sep-01 03:07N 38°57' W 074°52'0 0.0
2015-Sep-01 02:25N 38°57' W 074°52'0 0.0
2015-Sep-01 01:28N 38°57' W 074°52'0 0.0
2015-Sep-01 00:31N 38°57' W 074°52'0 0.0
2015-Aug-31 23:31N 38°57' W 074°52'0 0.0
2015-Aug-31 21:13N 38°57' W 074°52'0 0.3
2015-Aug-31 19:33N 38°57' W 074°52'17 1.5
2015-Aug-31 08:31N 39°10' W 074°38'0 0.0
2015-Aug-31 07:31N 39°10' W 074°38'0 0.0
2015-Aug-31 06:19N 39°10' W 074°38'0 0.0
2015-Aug-31 05:28N 39°10' W 074°38'0 0.0
2015-Aug-31 03:31N 39°10' W 074°38'0 0.0
2015-Aug-31 02:31N 39°10' W 074°38'0 0.0
2015-Aug-31 01:28N 39°10' W 074°38'0 0.0
2015-Aug-31 00:16N 39°10' W 074°38'0 0.0
2015-Aug-30 13:04N 39°10' W 074°38'0 0.0
2015-Aug-30 12:19N 39°10' W 074°38'0 0.0
2015-Aug-30 11:28N 39°09' W 074°38'0 0.0
2015-Aug-30 10:31N 39°10' W 074°38'0 0.0
2015-Aug-30 09:16N 39°09' W 074°38'0 0.0
2015-Aug-30 08:31N 39°10' W 074°38'0 0.0
2015-Aug-30 07:28N 39°09' W 074°38'0 0.0
2015-Aug-30 06:25N 39°09' W 074°38'0 0.0
2015-Aug-30 05:16N 39°09' W 074°38'0 0.0
2015-Aug-29 06:25N 39°09' W 074°38'0 0.0
2015-Aug-28 12:31N 39°10' W 074°38'0 0.0
2015-Aug-28 08:16N 39°10' W 074°38'0 0.0
2015-Aug-28 07:19N 39°10' W 074°38'0 0.0
2015-Aug-26 09:25N 39°10' W 074°38'0 0.0
2015-Aug-26 08:04N 39°10' W 074°38'0 0.0
2015-Aug-26 03:22N 39°10' W 074°38'  

Dump ship's entire track history